METAR Data
IDs: Format: Raw Decoded Include TAF

Data at: 0622 UTC 11 Dec 2018

PADL 110556Z 36007KT 1 3/4SM BR OVC005 00/00 RMK AO2 SLPNO 60001 T00000000 10006 20000 $
PADL 110456Z 05007KT 1SM BR VV004 00/00 RMK AO2 SLPNO T00000000 $
PADL 110356Z 08006KT 1SM BR VV005 01/00 RMK AO2 SLPNO T00060000 $
PADL 110256Z 09006KT 1SM BR VV005 01/00 RMK AO2 SLPNO 60001 T00060000 $
PADL 110237Z 11006KT 1SM BR OVC005 01/00 RMK AO2 $
PADL 110156Z 12007KT 5SM BR OVC007 01/00 RMK AO2 SNE54 SLPNO P0000 T00060000 $
PADL 110056Z 14007KT 3SM -SN BR OVC007 01/00 RMK AO2 SLPNO P0001 T00060000 $
PADL 110015Z 14010KT 3SM -SN BR OVC007 00/00 RMK AO2 P0001 $
PADL 102356Z 08009G16KT 1SM -SN BR OVC007 00/00 RMK AO2 SNB27 SLPNO P0000 60000 T00000000 10011 20000 $
PADL 102340Z 08009G16KT 1SM -SN BR OVC007 01/00 RMK AO2 SNB27 P0000 $
PADL 102333Z 08009G16KT 3SM -SN BR BKN007 OVC012 01/01 RMK AO2 SNB27 P0000 $
PADL 102256Z 10010KT 10SM OVC010 01/01 RMK AO2 SLPNO T00110006 $
PADL 102156Z 09009G14KT 10SM OVC010 01/01 RMK AO2 SLPNO CIG 008V012 T00110006 $
PADL 102056Z 11010KT 10SM OVC008 01/00 RMK AO2 UPB10E49RAB49E52SNE10 SLPNO P0000 60000 T00060000 $
PADL 101958Z COR 10011G16KT 6SM -SN BR OVC008 00/00 A2856 RMK CIG 004V012
PADL 101956Z 09011G22KT 1SM -SN BR OVC008 00/00 RMK AO2 SLPNO P0000 T00000000 $
PADL 101947Z 09011G22KT 1SM -SN BR OVC008 00/00 RMK AO2 P0000 $
PADL 101905Z COR 09012KT 2SM -SN BR OVC008 00/00 A2857
PADL 101903Z 09012KT 2SM -SN BR OVC008 00/00 RMK AO2 P0000 $
PADL 101856Z 09010G17KT 2SM -SN BR BKN014 OVC020 00/00 RMK AO2 SLPNO P0000 T00000000 $
PADL 101844Z 09012KT 2SM -SN BR BKN014 OVC020 00/00 RMK AO2 P0000 $
PADL 101825Z 09013G19KT 4SM -SN BR BKN014 OVC020 00/M01 RMK AO2 P0000 $
PADL 101756Z 09012G19KT 2SM -SN BR OVC012 00/M01 RMK AO2 SLPNO P0001 60006 T00001006 10000 21006 $
PADL 101704Z 08013G17KT 3SM -SN BR OVC010 M01/M01 RMK AO2 P0000 $
PADL 101656Z COR 07012G23KT 2SM SN BR OVC009 M01/M01 A2859 RMK CIG005V012
PADL 101614Z AUTO 08015G19KT 1 3/4SM -SN BR BKN007 OVC014 00/M01 RMK AO2 CIG 004V008 P0001 FZRANO $
PADL 101556Z AUTO 09011G19KT 1 3/4SM -SN BR FEW008 OVC014 00/00 RMK AO2 SLPNO P0000 T00000000 FZRANO $
PADL 101527Z AUTO 09013G21KT 2 1/2SM -SN BR BKN008 OVC018 00/00 RMK AO2 CIG 004V013 P0000 FZRANO $
PADL 101456Z AUTO 10013G19KT 4SM -SN BR BKN008 OVC013 00/00 RMK AO2 CIG 005V012 SLPNO P0000 60004 T00000000 FZRANO $
PADL 101356Z AUTO 11011G18KT 5SM -SN BR OVC008 00/00 RMK AO2 CIG 004V012 SLPNO P0001 T00000000 FZRANO $
PADL 101345Z AUTO 11014G19KT 5SM -SN BR OVC006 00/00 RMK AO2 CIG 003V010 P0001 FZRANO $
PADL 101332Z AUTO 11011G18KT 4SM -SN BR OVC004 00/00 RMK AO2 CIG 003V007 P0001 FZRANO $
PADL 101256Z AUTO 10011G17KT 2SM -SN BR OVC004 00/M01 RMK AO2 SLPNO P0003 T00001006 FZRANO $
PADL 101253Z AUTO 10011G18KT 2SM -SN BR OVC004 00/M01 RMK AO2 P0003 FZRANO $
PADL 101231Z AUTO 09010KT 2SM -SN BR OVC006 M01/M01 RMK AO2 CIG 004V010 P0003 FZRANO $
PADL 101220Z AUTO 09010G14KT 1 1/2SM -SN BR BKN008 OVC012 M01/M01 RMK AO2 CIG 004V009 P0002 FZRANO $
PADL 101152Z AUTO 04008KT 1SM -SN BR FEW005 OVC010 M03/M03 RMK AO2 P0001 FZRANO $
PADL 101117Z AUTO 03008KT 1 3/4SM -SN BR BKN014 BKN020 OVC050 M03/M03 RMK AO2 P0000 FZRANO $
PADL 101056Z AUTO 02007KT 10SM -SN BKN050 OVC065 M03/M04 RMK AO2 SNE18B52 SLPNO P0000 T10331039 FZRANO $
PADL 101014Z AUTO 01007KT 9SM -SN FEW003 BKN033 OVC041 M03/M04 RMK AO2 P0000 FZRANO $
PADL 101007Z AUTO 02008KT 9SM -SN SCT003 BKN027 OVC035 M03/M04 RMK AO2 P0000 FZRANO $
PADL 100956Z AUTO 36006KT 5SM -SN BR BKN003 BKN027 OVC034 M04/M04 RMK AO2 SNB14 SLPNO P0000 T10391039 FZRANO $
PADL 100950Z AUTO 01007KT 3SM -SN BR OVC003 M04/M04 RMK AO2 SNB14 P0000 FZRANO $
PADL 100934Z AUTO 02010KT 1 1/4SM -SN BR OVC003 M04/M04 RMK AO2 SNB14 P0000 FZRANO $
PADL 100918Z AUTO 03007KT 2 1/2SM -SN BR OVC003 M04/M04 RMK AO2 SNB14 P0000 FZRANO $
PADL 100856Z AUTO 02010KT 5SM BR OVC005 M04/M04 RMK AO2 SLPNO 60000 T10441044 410331094 FZRANO $
PADL 100852Z AUTO 02010KT 4SM BR OVC005 M04/M04 RMK AO2 410331094 FZRANO $
PADL 100844Z AUTO 01010KT 2 1/2SM BR OVC005 M04/M04 RMK AO2 FZRANO $
PADL 100817Z AUTO 02011KT 2SM BR OVC007 M04/M04 RMK AO2 CIG 005V010 FZRANO $
PADL 100807Z AUTO 02011KT 1 3/4SM BR OVC005 M04/M04 RMK AO2 FZRANO $
PADL 100736Z AUTO 01009KT 2 1/2SM BR OVC005 M04/M04 RMK AO2 UPB0658E36SNE0658 P0000 FZRANO $
PADL 100656Z AUTO 36009KT 3SM -SN BR OVC007 M04/M04 RMK AO2 UPB0558E49SNE0558B49 SLPNO P0000 T10391044 FZRANO $
PADL 100640Z AUTO 01010KT 3SM UP BR OVC007 M04/M04 RMK AO2 UPB0558SNE0558 P0000 FZRANO $
PADL 100556Z 01010G14KT 3SM -SN BR OVC016 M04/M05 RMK AO2 SLPNO P0000 60000 T10391050 11033 21044 $
PADL 100549Z 01011KT 3SM -SN BR OVC016 M04/M05 RMK AO2 P0000 $
PADL 100456Z 02011G16KT 2SM -SN BR OVC010 M04/M05 RMK AO2 SLPNO P0000 T10391050 $
PADL 100404Z 02011G16KT 1 1/2SM -SN BR BKN012 OVC017 M04/M04 RMK AO2 P0000 $
PADL 100356Z 02010G16KT 3SM -SN BR OVC014 M04/M04 RMK AO2 SLPNO P0000 T10391044 $
PADL 100349Z 02011KT 2 1/2SM -SN BR OVC016 M04/M04 RMK AO2 P0000 $
PADL 100256Z 02012KT 3SM -SN BR SCT024 OVC033 M04/M04 RMK AO2 UPB23E41SNB13E23B41 SLPNO P0000 60000 T10391044 $
PADL 100156Z 02011KT 10SM BKN040 OVC065 M03/M04 RMK AO2 SLPNO T10331039 $
PADL 100056Z 02013KT 10SM BKN047 OVC055 M03/M04 RMK AO2 UPB37E47SNB21E33B51E56 SLPNO P0000 T10331039 $
PADL 100055Z COR 36013G17KT 10SM BKN047 OVC055 M03/M03 A2891
PADL 092356Z 02014G18KT 9SM OVC039 M04/M04 RMK AO2 SNE14B33E54 SLPNO P0000 60000 T10391044 11039 21067 $
PADL 092353Z 02012KT 9SM -SN OVC039 M04/M04 RMK AO2 SNE14B33 P0000 $
PADL 092256Z COR 02012G16KT 3SM -SN BR BKN019 OVC026 M04/M05 A2894
PADL 092233Z 02011KT 1 1/2SM -SN BR BKN014 OVC034 M04/M05 RMK AO2 P0000 $
PADL 092156Z 02011G16KT 2SM -SN BR BKN014 BKN021 OVC034 M05/M06 RMK AO2 SLPNO P0000 T10501061 $
PADL 092152Z 02012KT 2SM -SN BR BKN014 BKN021 OVC034 M06/M06 RMK AO2 P0000 $
PADL 092102Z COR 01013KT 1SM -SN BR OVC014 M06/M06 A2898
PADL 092056Z 03010KT 1SM -SN BR OVC014 M06/M07 RMK AO2 SNB00 SLPNO P0000 60000 T10611067 $
PADL 092052Z 03011KT 1SM -SN BR BKN014 OVC023 M06/M07 RMK AO2 SNB00 P0000 $
PADL 092040Z 03010KT 1SM -SN BR BKN018 OVC023 M06/M07 RMK AO2 SNB00 P0000 $
PADL 092031Z 02011KT 2SM -SN BR OVC023 M06/M07 RMK AO2 SNB00 P0000 $
PADL 092024Z COR 01012KT 3SM -SN BR BKN028 OVC060 M06/M07 A2899
PADL 092022Z 02010KT 4SM -SN BR BKN023 OVC060 M07/M07 RMK AO2 SNB00 P0000 $
PADL 091958Z COR 36009KT 10SM BKN055 M06/M07 A2899
PADL 091956Z 02010KT 10SM OVC055 M07/M08 RMK AO2 SNB12E28 SLPNO P0000 T10671078 $
PADL 091900Z COR 01009KT 10SM SKC M06/M07 A2900
PADL 091856Z 03009KT 10SM FEW006 M07/M07 RMK AO2 SLPNO T10671072 $